Theologos P . — SZNB — position and weather

sailwx.info

Track history (hours):
 
Tides and Currents Weather Stations Pressure Air Temp Water Temp Dewpoint Dewpoint Depression Visibility Wind Speed Wind Dir Waves Ship Positions

Theologos P .

Last reported at 2014-Jul-28 22:33 UTC. Time now 2014-Jul-28 22:39 UTC.
Position N 37°28' E 025°20'.

Length 118 m; draft 4.5 m.

Type: Passenger vessel. MMSI: 240521000.

Date/timePositionNaut miles runAvg speedWind from/ knotsBaromVisibWave heightAir tempDewpointWater temp
2014-Jul-28 22:33N 37°28' E 025°20'0 0.0
2014-Jul-28 21:33N 37°28' E 025°20'0 0.0
2014-Jul-28 20:33N 37°28' E 025°20'0 0.1
2014-Jul-28 19:33N 37°28' E 025°20'1010.4
2014-Jul-28 18:33N 37°32' E 025°08'2318.8
2014-Jul-28 17:19N 37°48' E 024°46'7 8.1
2014-Jul-28 16:29N 37°52' E 024°40'1718.3
2014-Jul-28 15:33N 37°56' E 024°19'14 2.3
2014-Jul-28 09:11N 38°02' E 024°01'1219.6
2014-Jul-28 08:33N 37°57' E 024°16'1919.3
2014-Jul-28 07:33N 37°53' E 024°40'1211.2
2014-Jul-28 06:28N 37°44' E 024°51'1819.3
2014-Jul-28 05:33N 37°33' E 025°07'1110.7
2014-Jul-28 04:33N 37°28' E 025°20'0 0.0
2014-Jul-28 03:33N 37°28' E 025°20'0 0.0
2014-Jul-28 02:33N 37°28' E 025°20'0 0.0
2014-Jul-28 01:33N 37°28' E 025°20'0 0.0
2014-Jul-28 00:33N 37°28' E 025°20'5 5.0
2014-Jul-27 23:33N 37°30' E 025°14'1413.9
2014-Jul-27 22:33N 37°36' E 024°58'3818.7
2014-Jul-27 20:33N 37°54' E 024°17'5 2.6
2014-Jul-27 18:29N 37°58' E 024°12'1819.7
2014-Jul-27 17:33N 37°53' E 024°34'1 0.5
2014-Jul-27 16:03N 37°53' E 024°35'25 9.7
2014-Jul-27 13:31N 38°01' E 024°06'4715.7
2014-Jul-27 10:33N 37°39' E 024°58'1211.8
2014-Jul-27 09:33N 37°32' E 025°10'9 8.6
2014-Jul-27 08:33N 37°28' E 025°20'0 0.0
2014-Jul-27 07:33N 37°28' E 025°20'0 0.0
2014-Jul-27 06:33N 37°28' E 025°20'0 0.0
2014-Jul-27 05:33N 37°28' E 025°20'0 0.0
2014-Jul-27 04:33N 37°28' E 025°20'0 0.0
2014-Jul-27 03:33N 37°28' E 025°20'0 0.0
2014-Jul-27 02:33N 37°28' E 025°20'0 0.0
2014-Jul-27 01:33N 37°28' E 025°20'0 0.0
2014-Jul-27 00:33N 37°28' E 025°20'0 0.0
2014-Jul-26 23:33N 37°28' E 025°20'0 0.0
2014-Jul-26 22:33N 37°28' E 025°20'0 0.0
2014-Jul-26 21:33N 37°28' E 025°20'0 0.0
2014-Jul-26 20:33N 37°28' E 025°20'2 2.2
2014-Jul-26 19:34N 37°28' E 025°17'1211.8
2014-Jul-26 18:33N 37°34' E 025°04'2914.5
2014-Jul-26 16:32N 37°53' E 024°35'2418.1
2014-Jul-26 15:13N 37°60' E 024°06'4 2.7
2014-Jul-26 13:31N 37°59' E 024°12'3615.0
2014-Jul-26 11:09N 37°43' E 024°52'1118.7
2014-Jul-26 10:33N 37°36' E 025°03'1312.6
2014-Jul-26 09:33N 37°29' E 025°16'0 0.3
2014-Jul-26 08:33N 37°29' E 025°16'1312.7
2014-Jul-26 07:33N 37°36' E 025°02'22 2.3
2014-Jul-25 22:10N 37°47' E 024°39'1718.5
2014-Jul-25 21:14N 37°38' E 024°57'1318.4
2014-Jul-25 20:33N 37°31' E 025°10'8 8.4
2014-Jul-25 19:33N 37°28' E 025°19'1211.7
2014-Jul-25 18:33N 37°33' E 025°06'4814.8
2014-Jul-25 15:21N 37°58' E 024°15'10 1.6
2014-Jul-25 09:08N 38°01' E 024°02'4515.7
2014-Jul-25 06:14N 37°41' E 024°54'1318.9
2014-Jul-25 05:33N 37°33' E 025°07'1111.3
2014-Jul-25 04:32N 37°28' E 025°20'0 0.0
2014-Jul-25 03:33N 37°28' E 025°20'0 0.0
2014-Jul-25 02:33N 37°28' E 025°20'0 0.0
2014-Jul-25 01:33N 37°28' E 025°20'0 0.0
2014-Jul-25 00:33N 37°28' E 025°20'0 0.0
2014-Jul-24 23:33N 37°28' E 025°20'0 0.0
2014-Jul-24 22:33N 37°28' E 025°20'0 0.0
2014-Jul-24 21:33N 37°28' E 025°20'0 0.0
2014-Jul-24 20:32N 37°28' E 025°20'0 0.1
2014-Jul-24 19:33N 37°28' E 025°19'1111.3
2014-Jul-24 18:33N 37°33' E 025°07'59 6.3
2014-Jul-24 09:10N 38°01' E 024°02'4815.9
2014-Jul-24 06:10N 37°40' E 024°56'1219.1
2014-Jul-24 05:33N 37°33' E 025°07'1110.9
2014-Jul-24 04:34N 37°28' E 025°20'0 0.0
2014-Jul-24 03:34N 37°28' E 025°20'0 0.0
2014-Jul-24 02:33N 37°28' E 025°20'0 0.0
2014-Jul-24 01:33N 37°28' E 025°20'0 0.0
2014-Jul-24 00:34N 37°28' E 025°20'0 0.0
2014-Jul-23 23:34N 37°28' E 025°20'0 0.0
2014-Jul-23 22:33N 37°28' E 025°20'0 0.0
2014-Jul-23 21:33N 37°28' E 025°20'0 0.0
2014-Jul-23 20:34N 37°28' E 025°20'0 0.0
2014-Jul-23 19:33N 37°28' E 025°20'9 9.2
2014-Jul-23 18:33N 37°32' E 025°09'1716.5
2014-Jul-23 17:31N 37°43' E 024°53'1511.5
2014-Jul-23 16:14N 37°53' E 024°39'1319.0
2014-Jul-23 15:34N 37°56' E 024°23'18 2.9
2014-Jul-23 09:17N 38°01' E 024°01'1317.8
2014-Jul-23 08:33N 37°57' E 024°16'2814.0
2014-Jul-23 06:33N 37°46' E 024°49'1919.2
2014-Jul-23 05:33N 37°33' E 025°07'1111.3
2014-Jul-23 04:32N 37°28' E 025°20'0 0.0
2014-Jul-23 03:33N 37°28' E 025°20'0 0.0
2014-Jul-23 02:33N 37°28' E 025°20'0 0.0
2014-Jul-23 01:33N 37°28' E 025°20'0 0.0
2014-Jul-23 00:33N 37°28' E 025°20'0 0.0
2014-Jul-22 23:33N 37°28' E 025°20'0 0.0
2014-Jul-22 22:33N 37°28' E 025°20'0 0.0
2014-Jul-22 21:33N 37°28' E 025°20'0 0.0
2014-Jul-22 20:33N 37°28' E 025°20'0 0.0
2014-Jul-22 19:34N 37°28' E 025°20'9 9.2
2014-Jul-22 18:33N 37°32' E 025°09'1817.4
2014-Jul-22 17:29N 37°44' E 024°51'1210.8
2014-Jul-22 16:21N 37°52' E 024°40'1518.7
2014-Jul-22 15:33N 37°55' E 024°22'16 2.5
2014-Jul-22 09:07N 38°01' E 024°02'1119.2
2014-Jul-22 08:33N 37°57' E 024°15'3615.1
2014-Jul-22 06:12N 37°41' E 024°55'1219.0
2014-Jul-22 05:33N 37°33' E 025°07'1111.4
2014-Jul-22 04:33N 37°28' E 025°20'0 0.0
2014-Jul-22 03:32N 37°28' E 025°20'0 0.0
2014-Jul-22 02:33N 37°28' E 025°20'0 0.0
2014-Jul-22 01:33N 37°28' E 025°20'0 0.0
2014-Jul-22 00:33N 37°28' E 025°20'0 0.0
2014-Jul-21 23:33N 37°28' E 025°20'0 0.0
2014-Jul-21 22:32N 37°28' E 025°20'0 0.0
2014-Jul-21 21:32N 37°28' E 025°20'0 0.0
2014-Jul-21 20:33N 37°28' E 025°20'0 0.0
2014-Jul-21 20:18N 37°28' E 025°20'0 0.0
2014-Jul-21 19:33N 37°28' E 025°20'9 9.3
2014-Jul-21 18:33N 37°32' E 025°09'3313.8
2014-Jul-21 16:09N 37°53' E 024°37'1218.3
2014-Jul-21 15:32N 37°56' E 024°22'32 3.4
2014-Jul-21 06:08N 37°40' E 024°57'1118.6
2014-Jul-21 05:33N 37°33' E 025°07'1111.3
2014-Jul-21 04:33N 37°28' E 025°20'0 0.0
2014-Jul-21 03:33N 37°28' E 025°20'0 0.0
2014-Jul-21 02:32N 37°28' E 025°20'0 0.0
2014-Jul-21 01:33N 37°28' E 025°20'0 0.0
2014-Jul-21 00:33N 37°28' E 025°20'6 5.8
2014-Jul-20 23:33N 37°30' E 025°13'1313.4
2014-Jul-20 22:33N 37°36' E 024°58'2418.9
2014-Jul-20 21:18N 37°47' E 024°32'13 4.4
2014-Jul-20 18:17N 37°56' E 024°19'35 4.5
2014-Jul-20 10:29N 37°39' E 024°58'1112.2
2014-Jul-20 09:33N 37°32' E 025°09'9 9.2
2014-Jul-20 08:33N 37°28' E 025°20'0 0.0
2014-Jul-20 07:32N 37°28' E 025°20'0 0.0
2014-Jul-20 06:33N 37°28' E 025°20'0 0.0
2014-Jul-20 05:33N 37°28' E 025°20'0 0.0
2014-Jul-20 04:33N 37°28' E 025°20'0 0.0
2014-Jul-20 03:33N 37°28' E 025°20'0 0.0
2014-Jul-20 02:32N 37°28' E 025°20'0 0.0
2014-Jul-20 01:33N 37°28' E 025°20'0 0.0
2014-Jul-20 00:33N 37°28' E 025°20'0 0.0
2014-Jul-19 23:33N 37°28' E 025°20'0 0.0
2014-Jul-19 22:33N 37°28' E 025°20'0 0.0
2014-Jul-19 21:33N 37°28' E 025°20'0 0.0
2014-Jul-19 20:32N 37°28' E 025°20'0 0.0
2014-Jul-19 19:33N 37°28' E 025°20'10 9.9
2014-Jul-19 18:33N 37°32' E 025°09'3315.0
2014-Jul-19 16:21N 37°53' E 024°36'16 3.1
2014-Jul-19 11:05N 37°43' E 024°53'1019.0
2014-Jul-19 10:33N 37°37' E 025°02'1312.7
2014-Jul-19 09:33N 37°29' E 025°15'1 0.5
2014-Jul-19 08:33N 37°30' E 025°14'1312.9
2014-Jul-19 07:33N 37°37' E 025°01'46 5.8
2014-Jul-18 23:31N 37°59' E 024°09'  
Track history (hours):
 
Tides and Currents Weather Stations Pressure Air Temp Water Temp Dewpoint Dewpoint Depression Visibility Wind Speed Wind Dir Waves Ship Positions

Theologos P .

Last reported at 2014-Jul-28 22:33 UTC. Time now 2014-Jul-28 22:39 UTC.
Position N 37°28' E 025°20'.

Length 118 m; draft 4.5 m.

Type: Passenger vessel. MMSI: 240521000.

Date/timePositionNaut miles runAvg speedWind from/ knotsBaromVisibWave heightAir tempDewpointWater temp
2014-Jul-28 22:33N 37°28' E 025°20'0 0.0
2014-Jul-28 21:33N 37°28' E 025°20'0 0.0
2014-Jul-28 20:33N 37°28' E 025°20'0 0.1
2014-Jul-28 19:33N 37°28' E 025°20'1010.4
2014-Jul-28 18:33N 37°32' E 025°08'2318.8
2014-Jul-28 17:19N 37°48' E 024°46'7 8.1
2014-Jul-28 16:29N 37°52' E 024°40'1718.3
2014-Jul-28 15:33N 37°56' E 024°19'14 2.3
2014-Jul-28 09:11N 38°02' E 024°01'1219.6
2014-Jul-28 08:33N 37°57' E 024°16'1919.3
2014-Jul-28 07:33N 37°53' E 024°40'1211.2
2014-Jul-28 06:28N 37°44' E 024°51'1819.3
2014-Jul-28 05:33N 37°33' E 025°07'1110.7
2014-Jul-28 04:33N 37°28' E 025°20'0 0.0
2014-Jul-28 03:33N 37°28' E 025°20'0 0.0
2014-Jul-28 02:33N 37°28' E 025°20'0 0.0
2014-Jul-28 01:33N 37°28' E 025°20'0 0.0
2014-Jul-28 00:33N 37°28' E 025°20'5 5.0
2014-Jul-27 23:33N 37°30' E 025°14'1413.9
2014-Jul-27 22:33N 37°36' E 024°58'3818.7
2014-Jul-27 20:33N 37°54' E 024°17'5 2.6
2014-Jul-27 18:29N 37°58' E 024°12'1819.7
2014-Jul-27 17:33N 37°53' E 024°34'1 0.5
2014-Jul-27 16:03N 37°53' E 024°35'25 9.7
2014-Jul-27 13:31N 38°01' E 024°06'4715.7
2014-Jul-27 10:33N 37°39' E 024°58'1211.8
2014-Jul-27 09:33N 37°32' E 025°10'9 8.6
2014-Jul-27 08:33N 37°28' E 025°20'0 0.0
2014-Jul-27 07:33N 37°28' E 025°20'0 0.0
2014-Jul-27 06:33N 37°28' E 025°20'0 0.0
2014-Jul-27 05:33N 37°28' E 025°20'0 0.0
2014-Jul-27 04:33N 37°28' E 025°20'0 0.0
2014-Jul-27 03:33N 37°28' E 025°20'0 0.0
2014-Jul-27 02:33N 37°28' E 025°20'0 0.0
2014-Jul-27 01:33N 37°28' E 025°20'0 0.0
2014-Jul-27 00:33N 37°28' E 025°20'0 0.0
2014-Jul-26 23:33N 37°28' E 025°20'0 0.0
2014-Jul-26 22:33N 37°28' E 025°20'0 0.0
2014-Jul-26 21:33N 37°28' E 025°20'0 0.0
2014-Jul-26 20:33N 37°28' E 025°20'2 2.2
2014-Jul-26 19:34N 37°28' E 025°17'1211.8
2014-Jul-26 18:33N 37°34' E 025°04'2914.5
2014-Jul-26 16:32N 37°53' E 024°35'2418.1
2014-Jul-26 15:13N 37°60' E 024°06'4 2.7
2014-Jul-26 13:31N 37°59' E 024°12'3615.0
2014-Jul-26 11:09N 37°43' E 024°52'1118.7
2014-Jul-26 10:33N 37°36' E 025°03'1312.6
2014-Jul-26 09:33N 37°29' E 025°16'0 0.3
2014-Jul-26 08:33N 37°29' E 025°16'1312.7
2014-Jul-26 07:33N 37°36' E 025°02'22 2.3
2014-Jul-25 22:10N 37°47' E 024°39'1718.5
2014-Jul-25 21:14N 37°38' E 024°57'1318.4
2014-Jul-25 20:33N 37°31' E 025°10'8 8.4
2014-Jul-25 19:33N 37°28' E 025°19'1211.7
2014-Jul-25 18:33N 37°33' E 025°06'4814.8
2014-Jul-25 15:21N 37°58' E 024°15'10 1.6
2014-Jul-25 09:08N 38°01' E 024°02'4515.7
2014-Jul-25 06:14N 37°41' E 024°54'1318.9
2014-Jul-25 05:33N 37°33' E 025°07'1111.3
2014-Jul-25 04:32N 37°28' E 025°20'0 0.0
2014-Jul-25 03:33N 37°28' E 025°20'0 0.0
2014-Jul-25 02:33N 37°28' E 025°20'0 0.0
2014-Jul-25 01:33N 37°28' E 025°20'0 0.0
2014-Jul-25 00:33N 37°28' E 025°20'0 0.0
2014-Jul-24 23:33N 37°28' E 025°20'0 0.0
2014-Jul-24 22:33N 37°28' E 025°20'0 0.0
2014-Jul-24 21:33N 37°28' E 025°20'0 0.0
2014-Jul-24 20:32N 37°28' E 025°20'0 0.1
2014-Jul-24 19:33N 37°28' E 025°19'1111.3
2014-Jul-24 18:33N 37°33' E 025°07'59 6.3
2014-Jul-24 09:10N 38°01' E 024°02'4815.9
2014-Jul-24 06:10N 37°40' E 024°56'1219.1
2014-Jul-24 05:33N 37°33' E 025°07'1110.9
2014-Jul-24 04:34N 37°28' E 025°20'0 0.0
2014-Jul-24 03:34N 37°28' E 025°20'0 0.0
2014-Jul-24 02:33N 37°28' E 025°20'0 0.0
2014-Jul-24 01:33N 37°28' E 025°20'0 0.0
2014-Jul-24 00:34N 37°28' E 025°20'0 0.0
2014-Jul-23 23:34N 37°28' E 025°20'0 0.0
2014-Jul-23 22:33N 37°28' E 025°20'0 0.0
2014-Jul-23 21:33N 37°28' E 025°20'0 0.0
2014-Jul-23 20:34N 37°28' E 025°20'0 0.0
2014-Jul-23 19:33N 37°28' E 025°20'9 9.2
2014-Jul-23 18:33N 37°32' E 025°09'1716.5
2014-Jul-23 17:31N 37°43' E 024°53'1511.5
2014-Jul-23 16:14N 37°53' E 024°39'1319.0
2014-Jul-23 15:34N 37°56' E 024°23'18 2.9
2014-Jul-23 09:17N 38°01' E 024°01'1317.8
2014-Jul-23 08:33N 37°57' E 024°16'2814.0
2014-Jul-23 06:33N 37°46' E 024°49'1919.2
2014-Jul-23 05:33N 37°33' E 025°07'1111.3
2014-Jul-23 04:32N 37°28' E 025°20'0 0.0
2014-Jul-23 03:33N 37°28' E 025°20'0 0.0
2014-Jul-23 02:33N 37°28' E 025°20'0 0.0
2014-Jul-23 01:33N 37°28' E 025°20'0 0.0
2014-Jul-23 00:33N 37°28' E 025°20'0 0.0
2014-Jul-22 23:33N 37°28' E 025°20'0 0.0
2014-Jul-22 22:33N 37°28' E 025°20'0 0.0
2014-Jul-22 21:33N 37°28' E 025°20'0 0.0
2014-Jul-22 20:33N 37°28' E 025°20'0 0.0
2014-Jul-22 19:34N 37°28' E 025°20'9 9.2
2014-Jul-22 18:33N 37°32' E 025°09'1817.4
2014-Jul-22 17:29N 37°44' E 024°51'1210.8
2014-Jul-22 16:21N 37°52' E 024°40'1518.7
2014-Jul-22 15:33N 37°55' E 024°22'16 2.5
2014-Jul-22 09:07N 38°01' E 024°02'1119.2
2014-Jul-22 08:33N 37°57' E 024°15'3615.1
2014-Jul-22 06:12N 37°41' E 024°55'1219.0
2014-Jul-22 05:33N 37°33' E 025°07'1111.4
2014-Jul-22 04:33N 37°28' E 025°20'0 0.0
2014-Jul-22 03:32N 37°28' E 025°20'0 0.0
2014-Jul-22 02:33N 37°28' E 025°20'0 0.0
2014-Jul-22 01:33N 37°28' E 025°20'0 0.0
2014-Jul-22 00:33N 37°28' E 025°20'0 0.0
2014-Jul-21 23:33N 37°28' E 025°20'0 0.0
2014-Jul-21 22:32N 37°28' E 025°20'0 0.0
2014-Jul-21 21:32N 37°28' E 025°20'0 0.0
2014-Jul-21 20:33N 37°28' E 025°20'0 0.0
2014-Jul-21 20:18N 37°28' E 025°20'0 0.0
2014-Jul-21 19:33N 37°28' E 025°20'9 9.3
2014-Jul-21 18:33N 37°32' E 025°09'3313.8
2014-Jul-21 16:09N 37°53' E 024°37'1218.3
2014-Jul-21 15:32N 37°56' E 024°22'32 3.4
2014-Jul-21 06:08N 37°40' E 024°57'1118.6
2014-Jul-21 05:33N 37°33' E 025°07'1111.3
2014-Jul-21 04:33N 37°28' E 025°20'0 0.0
2014-Jul-21 03:33N 37°28' E 025°20'0 0.0
2014-Jul-21 02:32N 37°28' E 025°20'0 0.0
2014-Jul-21 01:33N 37°28' E 025°20'0 0.0
2014-Jul-21 00:33N 37°28' E 025°20'6 5.8
2014-Jul-20 23:33N 37°30' E 025°13'1313.4
2014-Jul-20 22:33N 37°36' E 024°58'2418.9
2014-Jul-20 21:18N 37°47' E 024°32'13 4.4
2014-Jul-20 18:17N 37°56' E 024°19'35 4.5
2014-Jul-20 10:29N 37°39' E 024°58'1112.2
2014-Jul-20 09:33N 37°32' E 025°09'9 9.2
2014-Jul-20 08:33N 37°28' E 025°20'0 0.0
2014-Jul-20 07:32N 37°28' E 025°20'0 0.0
2014-Jul-20 06:33N 37°28' E 025°20'0 0.0
2014-Jul-20 05:33N 37°28' E 025°20'0 0.0
2014-Jul-20 04:33N 37°28' E 025°20'0 0.0
2014-Jul-20 03:33N 37°28' E 025°20'0 0.0
2014-Jul-20 02:32N 37°28' E 025°20'0 0.0
2014-Jul-20 01:33N 37°28' E 025°20'0 0.0
2014-Jul-20 00:33N 37°28' E 025°20'0 0.0
2014-Jul-19 23:33N 37°28' E 025°20'0 0.0
2014-Jul-19 22:33N 37°28' E 025°20'0 0.0
2014-Jul-19 21:33N 37°28' E 025°20'0 0.0
2014-Jul-19 20:32N 37°28' E 025°20'0 0.0
2014-Jul-19 19:33N 37°28' E 025°20'10 9.9
2014-Jul-19 18:33N 37°32' E 025°09'3315.0
2014-Jul-19 16:21N 37°53' E 024°36'16 3.1
2014-Jul-19 11:05N 37°43' E 024°53'1019.0
2014-Jul-19 10:33N 37°37' E 025°02'1312.7
2014-Jul-19 09:33N 37°29' E 025°15'1 0.5
2014-Jul-19 08:33N 37°30' E 025°14'1312.9
2014-Jul-19 07:33N 37°37' E 025°01'46 5.8
2014-Jul-18 23:31N 37°59' E 024°09'  

Dump ship's entire track history